sensor_id;sensor_type;location;lat;lon;timestamp;temperature;humidity
24744;DHT22;12844;52.110;5.548;2023-03-23T00:01:27;19.30;54.30
24744;DHT22;12844;52.110;5.548;2023-03-23T00:03:56;19.30;54.30
24744;DHT22;12844;52.110;5.548;2023-03-23T00:06:25;19.30;54.30
24744;DHT22;12844;52.110;5.548;2023-03-23T00:08:52;19.30;54.30
24744;DHT22;12844;52.110;5.548;2023-03-23T00:11:24;19.30;54.30
24744;DHT22;12844;52.110;5.548;2023-03-23T00:13:52;19.30;54.30
24744;DHT22;12844;52.110;5.548;2023-03-23T00:16:19;19.30;54.30
24744;DHT22;12844;52.110;5.548;2023-03-23T00:18:50;19.30;54.30
24744;DHT22;12844;52.110;5.548;2023-03-23T00:21:20;19.30;54.30
24744;DHT22;12844;52.110;5.548;2023-03-23T00:23:51;19.30;54.30
24744;DHT22;12844;52.110;5.548;2023-03-23T00:26:17;19.30;54.30
24744;DHT22;12844;52.110;5.548;2023-03-23T00:28:43;19.20;54.30
24744;DHT22;12844;52.110;5.548;2023-03-23T00:31:11;19.30;54.30
24744;DHT22;12844;52.110;5.548;2023-03-23T00:33:38;19.20;54.30
24744;DHT22;12844;52.110;5.548;2023-03-23T00:36:07;19.20;54.30
24744;DHT22;12844;52.110;5.548;2023-03-23T00:38:34;19.20;54.30
24744;DHT22;12844;52.110;5.548;2023-03-23T00:41:00;19.20;54.30
24744;DHT22;12844;52.110;5.548;2023-03-23T00:43:28;19.20;54.30
24744;DHT22;12844;52.110;5.548;2023-03-23T00:45:56;19.20;54.30
24744;DHT22;12844;52.110;5.548;2023-03-23T00:48:23;19.20;54.30
24744;DHT22;12844;52.110;5.548;2023-03-23T00:50:50;19.20;54.30
24744;DHT22;12844;52.110;5.548;2023-03-23T00:53:17;19.20;54.30
24744;DHT22;12844;52.110;5.548;2023-03-23T00:55:43;19.20;54.30
24744;DHT22;12844;52.110;5.548;2023-03-23T00:58:10;19.20;54.30
24744;DHT22;12844;52.110;5.548;2023-03-23T01:00:35;19.20;54.20
24744;DHT22;12844;52.110;5.548;2023-03-23T01:03:01;19.20;54.20
24744;DHT22;12844;52.110;5.548;2023-03-23T01:05:26;19.20;54.30
24744;DHT22;12844;52.110;5.548;2023-03-23T01:07:58;19.20;54.30
24744;DHT22;12844;52.110;5.548;2023-03-23T01:10:24;19.20;54.30
24744;DHT22;12844;52.110;5.548;2023-03-23T01:12:53;19.20;54.30
24744;DHT22;12844;52.110;5.548;2023-03-23T01:15:20;19.20;54.30
24744;DHT22;12844;52.110;5.548;2023-03-23T01:17:45;19.20;54.30
24744;DHT22;12844;52.110;5.548;2023-03-23T01:20:13;19.20;54.30
24744;DHT22;12844;52.110;5.548;2023-03-23T01:22:39;19.20;54.30
24744;DHT22;12844;52.110;5.548;2023-03-23T01:25:06;19.20;54.30
24744;DHT22;12844;52.110;5.548;2023-03-23T01:27:32;19.20;54.30
24744;DHT22;12844;52.110;5.548;2023-03-23T01:29:58;19.20;54.30
24744;DHT22;12844;52.110;5.548;2023-03-23T01:32:23;19.10;54.30
24744;DHT22;12844;52.110;5.548;2023-03-23T01:34:48;19.20;54.30
24744;DHT22;12844;52.110;5.548;2023-03-23T01:37:14;19.20;54.30
24744;DHT22;12844;52.110;5.548;2023-03-23T01:39:41;19.20;54.30
24744;DHT22;12844;52.110;5.548;2023-03-23T01:42:08;19.20;54.30
24744;DHT22;12844;52.110;5.548;2023-03-23T01:47:00;19.20;54.20
24744;DHT22;12844;52.110;5.548;2023-03-23T01:49:35;19.10;54.20
24744;DHT22;12844;52.110;5.548;2023-03-23T01:52:05;19.20;54.30
24744;DHT22;12844;52.110;5.548;2023-03-23T01:54:33;19.10;54.20
24744;DHT22;12844;52.110;5.548;2023-03-23T01:57:10;19.10;54.30
24744;DHT22;12844;52.110;5.548;2023-03-23T01:59:37;19.10;54.30
24744;DHT22;12844;52.110;5.548;2023-03-23T02:02:03;19.10;54.30
24744;DHT22;12844;52.110;5.548;2023-03-23T02:04:30;19.10;54.30
24744;DHT22;12844;52.110;5.548;2023-03-23T02:06:56;19.10;54.20
24744;DHT22;12844;52.110;5.548;2023-03-23T02:09:24;19.10;54.20
24744;DHT22;12844;52.110;5.548;2023-03-23T02:11:50;19.10;54.30
24744;DHT22;12844;52.110;5.548;2023-03-23T02:14:16;19.10;54.30
24744;DHT22;12844;52.110;5.548;2023-03-23T02:20:41;19.10;54.20
24744;DHT22;12844;52.110;5.548;2023-03-23T02:28:56;19.10;54.30
24744;DHT22;12844;52.110;5.548;2023-03-23T02:33:59;19.00;54.30
24744;DHT22;12844;52.110;5.548;2023-03-23T02:36:33;19.00;54.30
24744;DHT22;12844;52.110;5.548;2023-03-23T02:39:08;19.00;54.30
24744;DHT22;12844;52.110;5.548;2023-03-23T02:41:45;19.00;54.30
24744;DHT22;12844;52.110;5.548;2023-03-23T02:44:12;19.00;54.20
24744;DHT22;12844;52.110;5.548;2023-03-23T02:46:39;19.10;54.20
24744;DHT22;12844;52.110;5.548;2023-03-23T02:49:07;19.10;54.30
24744;DHT22;12844;52.110;5.548;2023-03-23T02:51:34;19.10;54.40
24744;DHT22;12844;52.110;5.548;2023-03-23T02:54:01;19.10;54.30
24744;DHT22;12844;52.110;5.548;2023-03-23T02:56:28;19.00;54.30
24744;DHT22;12844;52.110;5.548;2023-03-23T02:58:55;19.10;54.30
24744;DHT22;12844;52.110;5.548;2023-03-23T03:03:58;19.10;54.20
24744;DHT22;12844;52.110;5.548;2023-03-23T03:06:32;19.00;54.10
24744;DHT22;12844;52.110;5.548;2023-03-23T03:09:04;19.00;54.00
24744;DHT22;12844;52.110;5.548;2023-03-23T03:11:34;19.00;54.00
24744;DHT22;12844;52.110;5.548;2023-03-23T03:16:40;19.00;54.00
24744;DHT22;12844;52.110;5.548;2023-03-23T03:19:20;19.00;54.00
24744;DHT22;12844;52.110;5.548;2023-03-23T03:21:51;19.00;54.00
24744;DHT22;12844;52.110;5.548;2023-03-23T03:24:19;19.00;54.00
24744;DHT22;12844;52.110;5.548;2023-03-23T03:26:47;19.00;54.00
24744;DHT22;12844;52.110;5.548;2023-03-23T03:29:18;19.00;54.00
24744;DHT22;12844;52.110;5.548;2023-03-23T03:31:47;19.00;54.00
24744;DHT22;12844;52.110;5.548;2023-03-23T03:34:14;19.00;53.90
24744;DHT22;12844;52.110;5.548;2023-03-23T03:36:44;19.00;54.00
24744;DHT22;12844;52.110;5.548;2023-03-23T03:39:12;19.00;53.90
24744;DHT22;12844;52.110;5.548;2023-03-23T03:41:38;19.00;53.90
24744;DHT22;12844;52.110;5.548;2023-03-23T03:44:05;19.00;53.80
24744;DHT22;12844;52.110;5.548;2023-03-23T03:46:31;19.00;53.80
24744;DHT22;12844;52.110;5.548;2023-03-23T03:48:58;19.00;53.90
24744;DHT22;12844;52.110;5.548;2023-03-23T03:51:25;19.00;53.80
24744;DHT22;12844;52.110;5.548;2023-03-23T03:53:51;18.90;53.70
24744;DHT22;12844;52.110;5.548;2023-03-23T03:56:16;18.90;53.80
24744;DHT22;12844;52.110;5.548;2023-03-23T03:58:42;18.90;53.70
24744;DHT22;12844;52.110;5.548;2023-03-23T04:01:08;18.90;53.70
24744;DHT22;12844;52.110;5.548;2023-03-23T04:03:38;18.90;53.80
24744;DHT22;12844;52.110;5.548;2023-03-23T04:06:04;18.90;53.70
24744;DHT22;12844;52.110;5.548;2023-03-23T04:08:30;18.90;53.80
24744;DHT22;12844;52.110;5.548;2023-03-23T04:10:57;18.90;53.80
24744;DHT22;12844;52.110;5.548;2023-03-23T04:13:23;18.90;53.70
24744;DHT22;12844;52.110;5.548;2023-03-23T04:15:48;18.90;53.70
24744;DHT22;12844;52.110;5.548;2023-03-23T04:18:15;18.90;53.70
24744;DHT22;12844;52.110;5.548;2023-03-23T04:20:43;18.90;53.70
24744;DHT22;12844;52.110;5.548;2023-03-23T04:23:10;18.90;53.70
24744;DHT22;12844;52.110;5.548;2023-03-23T04:25:35;18.90;53.70
24744;DHT22;12844;52.110;5.548;2023-03-23T04:28:01;18.90;53.70
24744;DHT22;12844;52.110;5.548;2023-03-23T04:30:27;18.90;53.70
24744;DHT22;12844;52.110;5.548;2023-03-23T04:32:54;18.90;53.70
24744;DHT22;12844;52.110;5.548;2023-03-23T04:35:24;18.80;53.60
24744;DHT22;12844;52.110;5.548;2023-03-23T04:37:51;18.90;53.70
24744;DHT22;12844;52.110;5.548;2023-03-23T04:40:18;18.80;53.60
24744;DHT22;12844;52.110;5.548;2023-03-23T04:42:44;18.80;53.60
24744;DHT22;12844;52.110;5.548;2023-03-23T04:45:16;18.80;53.60
24744;DHT22;12844;52.110;5.548;2023-03-23T04:47:47;18.80;53.60
24744;DHT22;12844;52.110;5.548;2023-03-23T04:50:19;18.80;53.60
24744;DHT22;12844;52.110;5.548;2023-03-23T04:52:45;18.80;53.60
24744;DHT22;12844;52.110;5.548;2023-03-23T04:55:12;18.80;53.60
24744;DHT22;12844;52.110;5.548;2023-03-23T04:57:37;18.80;53.60
24744;DHT22;12844;52.110;5.548;2023-03-23T05:00:04;18.80;53.60
24744;DHT22;12844;52.110;5.548;2023-03-23T05:02:37;18.80;53.60
24744;DHT22;12844;52.110;5.548;2023-03-23T05:05:05;18.80;53.60
24744;DHT22;12844;52.110;5.548;2023-03-23T05:07:31;18.80;53.60
24744;DHT22;12844;52.110;5.548;2023-03-23T05:09:57;18.80;53.60
24744;DHT22;12844;52.110;5.548;2023-03-23T05:12:22;18.80;53.60
24744;DHT22;12844;52.110;5.548;2023-03-23T05:14:48;18.80;53.60
24744;DHT22;12844;52.110;5.548;2023-03-23T05:17:14;18.80;53.60
24744;DHT22;12844;52.110;5.548;2023-03-23T05:19:42;18.80;53.50
24744;DHT22;12844;52.110;5.548;2023-03-23T05:22:10;18.80;53.60
24744;DHT22;12844;52.110;5.548;2023-03-23T05:24:37;18.80;53.60
24744;DHT22;12844;52.110;5.548;2023-03-23T05:27:03;18.80;53.60
24744;DHT22;12844;52.110;5.548;2023-03-23T05:29:29;18.80;53.60
24744;DHT22;12844;52.110;5.548;2023-03-23T05:31:59;18.70;53.60
24744;DHT22;12844;52.110;5.548;2023-03-23T05:34:28;18.70;53.50
24744;DHT22;12844;52.110;5.548;2023-03-23T05:36:54;18.80;53.60
24744;DHT22;12844;52.110;5.548;2023-03-23T05:39:21;18.70;53.60
24744;DHT22;12844;52.110;5.548;2023-03-23T05:41:47;18.70;53.60
24744;DHT22;12844;52.110;5.548;2023-03-23T05:44:12;18.70;53.50
24744;DHT22;12844;52.110;5.548;2023-03-23T05:46:41;18.70;53.50
24744;DHT22;12844;52.110;5.548;2023-03-23T05:49:07;18.70;53.60
24744;DHT22;12844;52.110;5.548;2023-03-23T05:51:32;18.70;53.50
24744;DHT22;12844;52.110;5.548;2023-03-23T05:53:58;18.70;53.50
24744;DHT22;12844;52.110;5.548;2023-03-23T05:56:24;18.70;53.50
24744;DHT22;12844;52.110;5.548;2023-03-23T05:58:50;18.70;53.50
24744;DHT22;12844;52.110;5.548;2023-03-23T06:01:15;18.70;53.50
24744;DHT22;12844;52.110;5.548;2023-03-23T06:03:41;18.70;53.50
24744;DHT22;12844;52.110;5.548;2023-03-23T06:06:10;18.70;53.50
24744;DHT22;12844;52.110;5.548;2023-03-23T06:08:36;18.70;53.50
24744;DHT22;12844;52.110;5.548;2023-03-23T06:11:03;18.70;53.50
24744;DHT22;12844;52.110;5.548;2023-03-23T06:13:29;18.70;53.60
24744;DHT22;12844;52.110;5.548;2023-03-23T06:15:55;18.70;53.70
24744;DHT22;12844;52.110;5.548;2023-03-23T06:18:24;18.70;53.80
24744;DHT22;12844;52.110;5.548;2023-03-23T06:20:50;18.70;53.80
24744;DHT22;12844;52.110;5.548;2023-03-23T06:23:16;18.70;53.90
24744;DHT22;12844;52.110;5.548;2023-03-23T06:25:43;18.70;53.90
24744;DHT22;12844;52.110;5.548;2023-03-23T06:28:09;18.70;53.90
24744;DHT22;12844;52.110;5.548;2023-03-23T06:30:35;18.70;53.90
24744;DHT22;12844;52.110;5.548;2023-03-23T06:33:01;18.70;53.90
24744;DHT22;12844;52.110;5.548;2023-03-23T06:35:33;18.70;54.00
24744;DHT22;12844;52.110;5.548;2023-03-23T06:37:58;18.70;53.90
24744;DHT22;12844;52.110;5.548;2023-03-23T06:40:27;18.70;54.00
24744;DHT22;12844;52.110;5.548;2023-03-23T06:42:53;18.70;53.90
24744;DHT22;12844;52.110;5.548;2023-03-23T06:45:19;18.70;53.90
24744;DHT22;12844;52.110;5.548;2023-03-23T06:47:45;18.60;53.80
24744;DHT22;12844;52.110;5.548;2023-03-23T06:50:11;18.60;53.90
24744;DHT22;12844;52.110;5.548;2023-03-23T06:52:36;18.70;53.90
24744;DHT22;12844;52.110;5.548;2023-03-23T06:55:02;18.60;53.80
24744;DHT22;12844;52.110;5.548;2023-03-23T06:57:27;18.60;53.80
24744;DHT22;12844;52.110;5.548;2023-03-23T06:59:53;18.60;53.80
24744;DHT22;12844;52.110;5.548;2023-03-23T07:02:18;18.60;53.80
24744;DHT22;12844;52.110;5.548;2023-03-23T07:04:44;18.60;53.90
24744;DHT22;12844;52.110;5.548;2023-03-23T07:07:11;18.60;53.90
24744;DHT22;12844;52.110;5.548;2023-03-23T07:09:39;18.60;53.80
24744;DHT22;12844;52.110;5.548;2023-03-23T07:12:05;18.60;53.80
24744;DHT22;12844;52.110;5.548;2023-03-23T07:14:30;18.60;53.80
24744;DHT22;12844;52.110;5.548;2023-03-23T07:16:56;18.60;53.90
24744;DHT22;12844;52.110;5.548;2023-03-23T07:19:22;18.60;54.00
24744;DHT22;12844;52.110;5.548;2023-03-23T07:21:47;18.60;54.00
24744;DHT22;12844;52.110;5.548;2023-03-23T07:24:13;18.60;54.00
24744;DHT22;12844;52.110;5.548;2023-03-23T07:26:42;18.60;54.00
24744;DHT22;12844;52.110;5.548;2023-03-23T07:29:08;18.60;53.90
24744;DHT22;12844;52.110;5.548;2023-03-23T07:31:34;18.60;54.00
24744;DHT22;12844;52.110;5.548;2023-03-23T07:34:01;18.60;53.90
24744;DHT22;12844;52.110;5.548;2023-03-23T07:36:28;18.60;53.90
24744;DHT22;12844;52.110;5.548;2023-03-23T07:38:54;18.60;53.90
24744;DHT22;12844;52.110;5.548;2023-03-23T07:41:20;18.50;53.90
24744;DHT22;12844;52.110;5.548;2023-03-23T07:43:45;18.60;53.90
24744;DHT22;12844;52.110;5.548;2023-03-23T07:46:12;18.60;53.90
24744;DHT22;12844;52.110;5.548;2023-03-23T07:48:38;18.60;53.90
24744;DHT22;12844;52.110;5.548;2023-03-23T07:51:04;18.60;53.90
24744;DHT22;12844;52.110;5.548;2023-03-23T07:53:30;18.60;53.90
24744;DHT22;12844;52.110;5.548;2023-03-23T07:55:56;18.60;53.90
24744;DHT22;12844;52.110;5.548;2023-03-23T07:58:23;18.60;54.00
24744;DHT22;12844;52.110;5.548;2023-03-23T08:00:49;18.60;54.00
24744;DHT22;12844;52.110;5.548;2023-03-23T08:03:15;18.60;54.00
24744;DHT22;12844;52.110;5.548;2023-03-23T08:05:41;18.60;54.00
24744;DHT22;12844;52.110;5.548;2023-03-23T08:08:08;18.60;54.00
24744;DHT22;12844;52.110;5.548;2023-03-23T08:10:35;18.60;54.00
24744;DHT22;12844;52.110;5.548;2023-03-23T08:13:01;18.60;54.00
24744;DHT22;12844;52.110;5.548;2023-03-23T08:15:26;18.60;54.00
24744;DHT22;12844;52.110;5.548;2023-03-23T08:17:52;18.50;53.90
24744;DHT22;12844;52.110;5.548;2023-03-23T08:20:18;18.60;53.80
24744;DHT22;12844;52.110;5.548;2023-03-23T08:22:51;18.70;54.00
24744;DHT22;12844;52.110;5.548;2023-03-23T08:25:18;18.60;54.20
24744;DHT22;12844;52.110;5.548;2023-03-23T08:27:44;18.70;54.50
24744;DHT22;12844;52.110;5.548;2023-03-23T08:30:15;18.80;54.50
24744;DHT22;12844;52.110;5.548;2023-03-23T08:32:42;19.00;54.60
24744;DHT22;12844;52.110;5.548;2023-03-23T08:35:09;19.20;54.70
24744;DHT22;12844;52.110;5.548;2023-03-23T08:37:35;19.40;54.60
24744;DHT22;12844;52.110;5.548;2023-03-23T08:40:01;19.60;54.50
24744;DHT22;12844;52.110;5.548;2023-03-23T08:42:32;19.70;54.60
24744;DHT22;12844;52.110;5.548;2023-03-23T08:44:58;19.80;54.60
24744;DHT22;12844;52.110;5.548;2023-03-23T08:47:24;19.90;54.70
24744;DHT22;12844;52.110;5.548;2023-03-23T08:49:50;20.00;54.60
24744;DHT22;12844;52.110;5.548;2023-03-23T08:52:18;20.10;54.50
24744;DHT22;12844;52.110;5.548;2023-03-23T08:54:44;20.30;54.30
24744;DHT22;12844;52.110;5.548;2023-03-23T08:57:12;20.30;54.20
24744;DHT22;12844;52.110;5.548;2023-03-23T08:59:38;20.30;54.00
24744;DHT22;12844;52.110;5.548;2023-03-23T09:02:04;20.40;53.90
24744;DHT22;12844;52.110;5.548;2023-03-23T09:04:29;20.40;54.00
24744;DHT22;12844;52.110;5.548;2023-03-23T09:06:55;20.50;53.90
24744;DHT22;12844;52.110;5.548;2023-03-23T09:09:22;20.50;53.70
24744;DHT22;12844;52.110;5.548;2023-03-23T09:11:48;20.60;53.60
24744;DHT22;12844;52.110;5.548;2023-03-23T09:14:13;20.60;53.40
24744;DHT22;12844;52.110;5.548;2023-03-23T09:16:39;20.60;53.40
24744;DHT22;12844;52.110;5.548;2023-03-23T09:19:05;20.70;53.30
24744;DHT22;12844;52.110;5.548;2023-03-23T09:21:34;20.70;53.20
24744;DHT22;12844;52.110;5.548;2023-03-23T09:23:59;20.80;53.10
24744;DHT22;12844;52.110;5.548;2023-03-23T09:26:27;20.80;53.00
24744;DHT22;12844;52.110;5.548;2023-03-23T09:28:53;20.80;53.00
24744;DHT22;12844;52.110;5.548;2023-03-23T09:31:19;20.80;52.90
24744;DHT22;12844;52.110;5.548;2023-03-23T09:33:48;20.80;53.00
24744;DHT22;12844;52.110;5.548;2023-03-23T09:36:18;20.80;53.00
24744;DHT22;12844;52.110;5.548;2023-03-23T09:38:43;20.80;53.00
24744;DHT22;12844;52.110;5.548;2023-03-23T09:44:37;20.80;53.10
24744;DHT22;12844;52.110;5.548;2023-03-23T09:49:50;20.80;53.20
24744;DHT22;12844;52.110;5.548;2023-03-23T09:52:18;20.80;53.20
24744;DHT22;12844;52.110;5.548;2023-03-23T09:54:49;20.80;53.20
24744;DHT22;12844;52.110;5.548;2023-03-23T09:57:41;20.90;53.00
24744;DHT22;12844;52.110;5.548;2023-03-23T10:00:13;20.90;52.90
24744;DHT22;12844;52.110;5.548;2023-03-23T10:05:37;20.80;53.00
24744;DHT22;12844;52.110;5.548;2023-03-23T10:13:32;20.80;53.00
24744;DHT22;12844;52.110;5.548;2023-03-23T10:16:02;20.80;53.10
24744;DHT22;12844;52.110;5.548;2023-03-23T10:21:12;20.70;53.30
24744;DHT22;12844;52.110;5.548;2023-03-23T10:23:56;20.80;53.10
24744;DHT22;12844;52.110;5.548;2023-03-23T10:26:32;20.80;53.10
24744;DHT22;12844;52.110;5.548;2023-03-23T10:29:08;20.70;53.10
24744;DHT22;12844;52.110;5.548;2023-03-23T10:31:53;20.70;53.20
24744;DHT22;12844;52.110;5.548;2023-03-23T10:39:52;20.80;53.20
24744;DHT22;12844;52.110;5.548;2023-03-23T10:42:39;20.90;53.10
24744;DHT22;12844;52.110;5.548;2023-03-23T10:45:18;20.90;53.00
24744;DHT22;12844;52.110;5.548;2023-03-23T10:48:09;21.00;53.00
24744;DHT22;12844;52.110;5.548;2023-03-23T10:50:37;21.10;52.90
24744;DHT22;12844;52.110;5.548;2023-03-23T10:53:21;21.10;52.90
24744;DHT22;12844;52.110;5.548;2023-03-23T10:55:47;21.00;53.20
24744;DHT22;12844;52.110;5.548;2023-03-23T10:58:33;20.80;53.30
24744;DHT22;12844;52.110;5.548;2023-03-23T11:01:01;20.80;53.30
24744;DHT22;12844;52.110;5.548;2023-03-23T11:03:41;20.80;53.20
24744;DHT22;12844;52.110;5.548;2023-03-23T11:06:27;20.80;53.40
24744;DHT22;12844;52.110;5.548;2023-03-23T11:09:00;20.70;53.30
24744;DHT22;12844;52.110;5.548;2023-03-23T11:11:28;20.70;53.50
24744;DHT22;12844;52.110;5.548;2023-03-23T11:14:24;20.60;53.50
24744;DHT22;12844;52.110;5.548;2023-03-23T11:16:55;20.60;53.50
24744;DHT22;12844;52.110;5.548;2023-03-23T11:19:31;20.60;53.60
24744;DHT22;12844;52.110;5.548;2023-03-23T11:22:08;20.60;53.70
24744;DHT22;12844;52.110;5.548;2023-03-23T11:24:43;20.70;53.30
24744;DHT22;12844;52.110;5.548;2023-03-23T11:27:10;20.60;53.40
24744;DHT22;12844;52.110;5.548;2023-03-23T11:29:48;20.60;53.40
24744;DHT22;12844;52.110;5.548;2023-03-23T11:32:16;20.60;53.40
24744;DHT22;12844;52.110;5.548;2023-03-23T11:37:12;20.50;53.30
24744;DHT22;12844;52.110;5.548;2023-03-23T11:40:01;20.60;53.20
24744;DHT22;12844;52.110;5.548;2023-03-23T11:47:55;20.60;53.80
24744;DHT22;12844;52.110;5.548;2023-03-23T11:50:26;20.60;53.80
24744;DHT22;12844;52.110;5.548;2023-03-23T11:56:11;20.60;53.60
24744;DHT22;12844;52.110;5.548;2023-03-23T11:58:38;20.60;53.70
24744;DHT22;12844;52.110;5.548;2023-03-23T12:01:30;20.50;53.80
24744;DHT22;12844;52.110;5.548;2023-03-23T12:06:52;20.40;53.80
24744;DHT22;12844;52.110;5.548;2023-03-23T12:09:28;20.40;53.80
24744;DHT22;12844;52.110;5.548;2023-03-23T12:28:29;20.30;54.00
24744;DHT22;12844;52.110;5.548;2023-03-23T12:36:59;20.30;54.10
24744;DHT22;12844;52.110;5.548;2023-03-23T12:45:05;20.30;54.30
24744;DHT22;12844;52.110;5.548;2023-03-23T12:47:37;20.30;54.20
24744;DHT22;12844;52.110;5.548;2023-03-23T12:50:13;20.30;54.30
24744;DHT22;12844;52.110;5.548;2023-03-23T12:58:26;20.30;54.30
24744;DHT22;12844;52.110;5.548;2023-03-23T13:01:11;20.40;54.10
24744;DHT22;12844;52.110;5.548;2023-03-23T13:03:59;20.60;53.90
24744;DHT22;12844;52.110;5.548;2023-03-23T13:06:37;20.60;53.80
24744;DHT22;12844;52.110;5.548;2023-03-23T13:11:38;20.60;53.80
24744;DHT22;12844;52.110;5.548;2023-03-23T13:22:59;20.60;53.70
24744;DHT22;12844;52.110;5.548;2023-03-23T13:28:21;20.60;53.80
24744;DHT22;12844;52.110;5.548;2023-03-23T13:30:59;20.60;53.80
24744;DHT22;12844;52.110;5.548;2023-03-23T13:33:29;20.60;53.80
24744;DHT22;12844;52.110;5.548;2023-03-23T13:35:55;20.60;54.40
24744;DHT22;12844;52.110;5.548;2023-03-23T13:38:26;20.60;53.80
24744;DHT22;12844;52.110;5.548;2023-03-23T13:40:54;20.60;53.80
24744;DHT22;12844;52.110;5.548;2023-03-23T13:43:32;20.60;53.80
24744;DHT22;12844;52.110;5.548;2023-03-23T13:46:28;20.60;53.80
24744;DHT22;12844;52.110;5.548;2023-03-23T13:49:24;20.60;53.70
24744;DHT22;12844;52.110;5.548;2023-03-23T13:54:25;20.50;53.70
24744;DHT22;12844;52.110;5.548;2023-03-23T13:57:02;20.50;53.70
24744;DHT22;12844;52.110;5.548;2023-03-23T14:02:21;20.30;54.00
24744;DHT22;12844;52.110;5.548;2023-03-23T14:04:42;20.30;54.20
24744;DHT22;12844;52.110;5.548;2023-03-23T14:07:12;20.20;54.30
24744;DHT22;12844;52.110;5.548;2023-03-23T14:09:42;20.20;54.40
24744;DHT22;12844;52.110;5.548;2023-03-23T14:12:26;20.20;54.40
24744;DHT22;12844;52.110;5.548;2023-03-23T14:14:58;20.30;54.10
24744;DHT22;12844;52.110;5.548;2023-03-23T14:17:28;20.40;54.10
24744;DHT22;12844;52.110;5.548;2023-03-23T14:19:57;20.40;54.00
24744;DHT22;12844;52.110;5.548;2023-03-23T14:22:31;20.40;54.00
24744;DHT22;12844;52.110;5.548;2023-03-23T14:25:02;20.40;53.90
24744;DHT22;12844;52.110;5.548;2023-03-23T14:27:34;20.40;54.00
24744;DHT22;12844;52.110;5.548;2023-03-23T14:30:05;20.40;54.10
24744;DHT22;12844;52.110;5.548;2023-03-23T14:32:32;20.40;54.20
24744;DHT22;12844;52.110;5.548;2023-03-23T14:34:59;20.40;54.20
24744;DHT22;12844;52.110;5.548;2023-03-23T14:37:26;20.40;54.20
24744;DHT22;12844;52.110;5.548;2023-03-23T14:39:53;20.50;54.20
24744;DHT22;12844;52.110;5.548;2023-03-23T14:42:31;20.50;54.10
24744;DHT22;12844;52.110;5.548;2023-03-23T14:44:57;20.50;54.10
24744;DHT22;12844;52.110;5.548;2023-03-23T14:47:27;20.50;54.20
24744;DHT22;12844;52.110;5.548;2023-03-23T14:49:57;20.50;54.10
24744;DHT22;12844;52.110;5.548;2023-03-23T14:52:25;20.50;54.10
24744;DHT22;12844;52.110;5.548;2023-03-23T14:54:51;20.60;54.10
24744;DHT22;12844;52.110;5.548;2023-03-23T14:57:28;20.60;54.10
24744;DHT22;12844;52.110;5.548;2023-03-23T14:59:54;20.60;54.00
24744;DHT22;12844;52.110;5.548;2023-03-23T15:02:35;20.60;54.00
24744;DHT22;12844;52.110;5.548;2023-03-23T15:07:37;20.60;54.00
24744;DHT22;12844;52.110;5.548;2023-03-23T15:10:08;20.70;54.10
24744;DHT22;12844;52.110;5.548;2023-03-23T15:12:36;20.70;54.00
24744;DHT22;12844;52.110;5.548;2023-03-23T15:15:05;20.70;54.00
24744;DHT22;12844;52.110;5.548;2023-03-23T15:17:35;20.70;54.00
24744;DHT22;12844;52.110;5.548;2023-03-23T15:20:30;20.70;54.00
24744;DHT22;12844;52.110;5.548;2023-03-23T15:23:04;20.80;54.00
24744;DHT22;12844;52.110;5.548;2023-03-23T15:25:33;20.80;54.10
24744;DHT22;12844;52.110;5.548;2023-03-23T15:28:17;20.80;54.00
24744;DHT22;12844;52.110;5.548;2023-03-23T15:30:52;20.80;54.00
24744;DHT22;12844;52.110;5.548;2023-03-23T15:33:18;20.80;54.00
24744;DHT22;12844;52.110;5.548;2023-03-23T15:35:51;20.80;54.00
24744;DHT22;12844;52.110;5.548;2023-03-23T15:40:53;20.80;54.00
24744;DHT22;12844;52.110;5.548;2023-03-23T15:43:25;20.80;54.00
24744;DHT22;12844;52.110;5.548;2023-03-23T15:45:59;20.80;54.00
24744;DHT22;12844;52.110;5.548;2023-03-23T15:48:47;20.80;54.00
24744;DHT22;12844;52.110;5.548;2023-03-23T15:51:14;20.80;54.00
24744;DHT22;12844;52.110;5.548;2023-03-23T15:53:40;20.80;54.00
24744;DHT22;12844;52.110;5.548;2023-03-23T15:56:08;20.80;54.00
24744;DHT22;12844;52.110;5.548;2023-03-23T15:58:36;20.80;53.90
24744;DHT22;12844;52.110;5.548;2023-03-23T16:01:04;20.80;53.90
24744;DHT22;12844;52.110;5.548;2023-03-23T16:03:41;20.80;53.90
24744;DHT22;12844;52.110;5.548;2023-03-23T16:06:19;20.80;53.90
24744;DHT22;12844;52.110;5.548;2023-03-23T16:08:46;20.70;54.10
24744;DHT22;12844;52.110;5.548;2023-03-23T16:11:13;20.60;54.30
24744;DHT22;12844;52.110;5.548;2023-03-23T16:13:39;20.50;54.40
24744;DHT22;12844;52.110;5.548;2023-03-23T16:16:05;20.50;54.50
24744;DHT22;12844;52.110;5.548;2023-03-23T16:18:33;20.50;54.60
24744;DHT22;12844;52.110;5.548;2023-03-23T16:20:58;20.50;54.50
24744;DHT22;12844;52.110;5.548;2023-03-23T16:23:25;20.60;54.30
24744;DHT22;12844;52.110;5.548;2023-03-23T16:25:51;20.60;54.10
24744;DHT22;12844;52.110;5.548;2023-03-23T16:28:17;20.70;54.10
24744;DHT22;12844;52.110;5.548;2023-03-23T16:30:43;20.60;54.10
24744;DHT22;12844;52.110;5.548;2023-03-23T16:33:09;20.70;54.10
24744;DHT22;12844;52.110;5.548;2023-03-23T16:35:35;20.70;54.00
24744;DHT22;12844;52.110;5.548;2023-03-23T16:38:01;20.70;54.00
24744;DHT22;12844;52.110;5.548;2023-03-23T16:40:27;20.70;54.00
24744;DHT22;12844;52.110;5.548;2023-03-23T16:42:53;20.70;54.00
24744;DHT22;12844;52.110;5.548;2023-03-23T16:45:19;20.70;54.00
24744;DHT22;12844;52.110;5.548;2023-03-23T16:47:45;20.70;54.10
24744;DHT22;12844;52.110;5.548;2023-03-23T16:50:14;20.70;54.20
24744;DHT22;12844;52.110;5.548;2023-03-23T16:52:41;20.70;54.20
24744;DHT22;12844;52.110;5.548;2023-03-23T16:55:08;20.70;54.20
24744;DHT22;12844;52.110;5.548;2023-03-23T16:57:34;20.70;54.20
24744;DHT22;12844;52.110;5.548;2023-03-23T17:00:03;20.70;54.30
24744;DHT22;12844;52.110;5.548;2023-03-23T17:02:31;20.70;54.30
24744;DHT22;12844;52.110;5.548;2023-03-23T17:04:57;20.70;54.30
24744;DHT22;12844;52.110;5.548;2023-03-23T17:07:24;20.70;54.30
24744;DHT22;12844;52.110;5.548;2023-03-23T17:09:50;20.70;54.30
24744;DHT22;12844;52.110;5.548;2023-03-23T17:12:16;20.70;54.40
24744;DHT22;12844;52.110;5.548;2023-03-23T17:14:41;20.70;54.50
24744;DHT22;12844;52.110;5.548;2023-03-23T17:17:07;20.70;54.50
24744;DHT22;12844;52.110;5.548;2023-03-23T17:19:33;20.70;54.40
24744;DHT22;12844;52.110;5.548;2023-03-23T17:21:59;20.70;54.40
24744;DHT22;12844;52.110;5.548;2023-03-23T17:24:24;20.60;54.40
24744;DHT22;12844;52.110;5.548;2023-03-23T17:26:52;20.70;54.50
24744;DHT22;12844;52.110;5.548;2023-03-23T17:29:17;20.60;54.50
24744;DHT22;12844;52.110;5.548;2023-03-23T17:31:43;20.70;54.60
24744;DHT22;12844;52.110;5.548;2023-03-23T17:34:09;20.70;54.50
24744;DHT22;12844;52.110;5.548;2023-03-23T17:36:35;20.70;54.50